Time,TemperatureF,DewpointF,PressureIn,WindDirection,WindDirectionDegrees,WindSpeedMPH,WindSpeedGustMPH,Humidity,HourlyPrecipIn,Conditions,Clouds,dailyrainin,SoftwareType,DateUTC
2013-02-19 00:00:00,48.0,45.2,29.91,SSE,151,0.0,0.0,90,0.00,CLR,,0.00,WeatherDisplay:10.37,2013-02-19 06:00:00,
2013-02-19 00:10:00,48.0,45.2,29.91,SSW,195,0.0,0.0,90,0.00,CLR,,0.00,WeatherDisplay:10.37,2013-02-19 06:10:00,
2013-02-19 00:20:00,48.0,45.2,29.92,SSW,201,0.0,0.0,90,0.00,CLR,,0.00,WeatherDisplay:10.37,2013-02-19 06:20:00,
2013-02-19 00:30:00,48.4,45.6,29.92,South,191,0.0,0.0,90,0.00,CLR,,0.00,WeatherDisplay:10.37,2013-02-19 06:30:00,
2013-02-19 00:40:00,48.4,45.6,29.92,SSE,168,0.0,0.0,90,0.00,CLR,,0.00,WeatherDisplay:10.37,2013-02-19 06:40:00,
2013-02-19 00:50:00,48.2,45.4,29.93,West,281,0.0,0.0,90,0.00,CLR,,0.00,WeatherDisplay:10.37,2013-02-19 06:50:00,
2013-02-19 01:00:00,48.4,45.6,29.94,WSW,237,0.0,0.0,90,0.00,CLR,,0.00,WeatherDisplay:10.37,2013-02-19 07:00:00,
2013-02-19 01:10:00,48.4,45.6,29.93,SW,216,0.0,0.0,90,0.00,CLR,,0.00,WeatherDisplay:10.37,2013-02-19 07:10:00,
2013-02-19 01:20:00,48.4,45.6,29.93,SW,231,0.0,0.0,90,0.00,CLR,,0.00,WeatherDisplay:10.37,2013-02-19 07:20:00,
2013-02-19 01:30:00,48.4,45.6,29.93,SW,225,0.0,0.0,90,0.00,CLR,,0.00,WeatherDisplay:10.37,2013-02-19 07:30:00,
2013-02-19 01:40:00,47.7,44.9,29.93,WNW,290,0.0,0.0,90,0.06,RA,,0.06,WeatherDisplay:10.37,2013-02-19 07:40:00,
2013-02-19 01:50:00,47.2,44.4,29.95,WNW,296,0.0,0.0,90,0.00,,,0.06,WeatherDisplay:10.37,2013-02-19 07:50:00,
2013-02-19 02:00:00,46.8,43.7,29.96,NW,315,0.0,0.0,89,0.00,,,0.06,WeatherDisplay:10.37,2013-02-19 08:00:00,
2013-02-19 02:10:00,46.1,42.7,29.96,NW,312,0.0,0.0,88,0.00,,,0.06,WeatherDisplay:10.37,2013-02-19 08:10:00,
2013-02-19 02:20:00,45.0,41.0,29.96,NW,315,0.0,0.0,86,0.00,,,0.06,WeatherDisplay:10.37,2013-02-19 08:20:00,
2013-02-19 02:30:00,44.2,40.0,29.97,NW,307,0.0,0.0,85,0.00,,,0.06,WeatherDisplay:10.37,2013-02-19 08:30:00,
2013-02-19 02:40:00,43.3,38.8,29.97,NW,307,0.0,0.0,84,0.00,CLR,,0.06,WeatherDisplay:10.37,2013-02-19 08:40:00,
2013-02-19 02:50:00,43.0,38.8,29.98,WNW,293,0.0,0.0,85,0.00,CLR,,0.06,WeatherDisplay:10.37,2013-02-19 08:50:00,
2013-02-19 03:00:00,43.0,38.8,29.98,West,273,0.0,0.0,85,0.00,CLR,,0.06,WeatherDisplay:10.37,2013-02-19 09:00:00,
2013-02-19 03:10:00,42.8,38.6,29.99,WNW,300,0.0,0.0,85,0.00,CLR,,0.06,WeatherDisplay:10.37,2013-02-19 09:10:00,
2013-02-19 03:20:00,42.8,38.3,29.99,WNW,301,0.0,0.0,84,0.00,CLR,,0.06,WeatherDisplay:10.37,2013-02-19 09:20:00,
2013-02-19 03:30:00,42.8,38.3,29.99,NW,313,0.0,0.0,84,0.00,CLR,,0.06,WeatherDisplay:10.37,2013-02-19 09:30:00,
2013-02-19 03:40:00,42.6,37.2,30.00,NW,318,0.0,0.0,81,0.00,CLR,,0.06,WeatherDisplay:10.37,2013-02-19 09:40:00,
2013-02-19 03:50:00,42.3,36.9,30.00,NNW,339,0.0,0.0,81,0.00,CLR,,0.06,WeatherDisplay:10.37,2013-02-19 09:50:00,
2013-02-19 04:00:00,42.1,37.0,30.00,NW,326,0.0,0.0,82,0.00,CLR,,0.06,WeatherDisplay:10.37,2013-02-19 10:00:00,
2013-02-19 04:10:00,42.1,37.0,30.01,NW,315,0.0,0.0,82,0.00,CLR,,0.06,WeatherDisplay:10.37,2013-02-19 10:10:00,
2013-02-19 04:20:00,41.7,36.6,30.02,WNW,292,0.0,0.0,82,0.00,CLR,,0.06,WeatherDisplay:10.37,2013-02-19 10:20:00,
2013-02-19 04:30:00,41.4,35.7,30.02,NW,307,0.0,0.0,80,0.00,CLR,,0.06,WeatherDisplay:10.37,2013-02-19 10:30:00,
2013-02-19 04:40:00,40.8,35.1,30.03,NW,310,0.0,0.0,80,0.00,CLR,,0.06,WeatherDisplay:10.37,2013-02-19 10:40:00,
2013-02-19 04:50:00,40.3,34.6,30.03,NW,311,0.0,0.0,80,0.00,CLR,,0.06,WeatherDisplay:10.37,2013-02-19 10:50:00,
2013-02-19 05:00:00,39.9,34.6,30.04,NW,320,0.0,0.0,81,0.00,CLR,,0.06,WeatherDisplay:10.37,2013-02-19 11:00:00,
2013-02-19 05:10:00,39.9,34.5,30.04,NW,325,0.0,0.0,81,0.00,CLR,,0.06,WeatherDisplay:10.37,2013-02-19 11:10:00,
2013-02-19 05:20:00,39.7,34.4,30.04,NW,323,0.0,0.0,81,0.00,CLR,,0.06,WeatherDisplay:10.37,2013-02-19 11:20:00,
2013-02-19 05:30:00,39.7,34.1,30.04,WNW,295,0.0,0.0,80,0.00,CLR,,0.06,WeatherDisplay:10.37,2013-02-19 11:30:00,
2013-02-19 05:40:00,39.9,33.9,30.06,NW,312,0.0,0.0,79,0.00,CLR,,0.06,WeatherDisplay:10.37,2013-02-19 11:40:00,
2013-02-19 05:50:00,39.7,33.7,30.07,NNW,329,0.0,0.0,79,0.00,CLR,,0.06,WeatherDisplay:10.37,2013-02-19 11:50:00,
2013-02-19 06:00:00,39.4,33.7,30.08,NW,321,0.0,0.0,80,0.00,CLR,,0.06,WeatherDisplay:10.37,2013-02-19 12:00:00,
2013-02-19 06:10:00,39.0,33.3,30.09,NNW,330,0.0,0.0,80,0.00,CLR,,0.06,WeatherDisplay:10.37,2013-02-19 12:10:00,
2013-02-19 06:20:00,38.7,33.0,30.09,NNW,332,0.0,0.0,80,0.00,CLR,,0.06,WeatherDisplay:10.37,2013-02-19 12:20:00,
2013-02-19 06:30:00,38.1,32.5,30.10,NW,318,0.0,0.0,80,0.00,CLR,,0.06,WeatherDisplay:10.37,2013-02-19 12:30:00,
2013-02-19 06:40:00,37.8,32.1,30.11,NNW,328,0.0,0.0,80,0.00,CLR,,0.06,WeatherDisplay:10.37,2013-02-19 12:40:00,
2013-02-19 06:50:00,37.2,31.6,30.11,NW,304,0.0,0.0,80,0.00,CLR,,0.06,WeatherDisplay:10.37,2013-02-19 12:50:00,
2013-02-19 07:00:00,37.2,31.6,30.12,WNW,303,0.0,0.0,80,0.00,CLR,,0.06,WeatherDisplay:10.37,2013-02-19 13:00:00,
2013-02-19 07:10:00,37.0,30.8,30.13,NW,313,0.0,0.0,78,0.00,CLR,,0.06,WeatherDisplay:10.37,2013-02-19 13:10:00,
2013-02-19 07:20:00,37.6,31.0,30.13,NW,310,0.0,0.0,77,0.00,CLR,,0.06,WeatherDisplay:10.37,2013-02-19 13:20:00,
2013-02-19 07:30:00,37.6,30.7,30.14,NW,315,0.0,0.0,76,0.00,CLR,,0.06,WeatherDisplay:10.37,2013-02-19 13:30:00,
2013-02-19 07:40:00,37.6,30.0,30.15,WNW,295,0.0,0.0,74,0.00,CLR,,0.06,WeatherDisplay:10.37,2013-02-19 13:40:00,
2013-02-19 07:50:00,37.6,29.7,30.15,WNW,295,0.0,0.0,73,0.00,CLR,,0.06,WeatherDisplay:10.37,2013-02-19 13:50:00,
2013-02-19 08:00:00,38.1,29.2,30.16,WNW,291,0.0,0.0,70,0.00,CLR,,0.06,WeatherDisplay:10.37,2013-02-19 14:00:00,
2013-02-19 08:10:00,39.0,29.0,30.16,WNW,299,0.0,0.0,67,0.00,CLR,,0.06,WeatherDisplay:10.37,2013-02-19 14:10:00,
2013-02-19 08:20:00,39.4,28.6,30.17,WNW,300,0.0,0.0,65,0.00,CLR,,0.06,WeatherDisplay:10.37,2013-02-19 14:20:00,
2013-02-19 08:30:00,40.1,29.3,30.16,WNW,293,0.0,0.0,65,0.00,CLR,,0.06,WeatherDisplay:10.37,2013-02-19 14:30:00,
2013-02-19 08:40:00,40.8,29.6,30.16,WNW,297,0.0,0.0,64,0.00,CLR,,0.06,WeatherDisplay:10.37,2013-02-19 14:40:00,
2013-02-19 08:50:00,40.7,29.4,30.17,WNW,301,0.0,0.0,64,0.00,CLR,,0.06,WeatherDisplay:10.37,2013-02-19 14:50:00,
2013-02-19 09:00:00,41.7,30.8,30.17,NW,306,0.0,0.0,65,0.00,CLR,,0.06,WeatherDisplay:10.37,2013-02-19 15:00:00,
2013-02-19 09:10:00,42.8,31.5,30.17,WNW,283,0.0,0.0,64,0.00,CLR,,0.06,WeatherDisplay:10.37,2013-02-19 15:10:00,
2013-02-19 09:20:00,42.8,29.9,30.18,NW,308,0.0,0.0,60,0.00,CLR,,0.06,WeatherDisplay:10.37,2013-02-19 15:20:00,
2013-02-19 09:30:00,44.4,31.0,30.18,West,279,0.0,0.0,59,0.00,CLR,,0.06,WeatherDisplay:10.37,2013-02-19 15:30:00,
2013-02-19 09:40:00,45.1,29.5,30.18,WNW,285,0.0,0.0,54,0.00,CLR,,0.06,WeatherDisplay:10.37,2013-02-19 15:40:00,
2013-02-19 09:50:00,46.5,30.7,30.19,WNW,287,0.0,0.0,54,0.00,CLR,,0.06,WeatherDisplay:10.37,2013-02-19 15:50:00,
2013-02-19 10:00:00,46.5,28.8,30.19,WNW,291,0.0,0.0,50,0.00,CLR,,0.06,WeatherDisplay:10.37,2013-02-19 16:00:00,
2013-02-19 10:10:00,46.8,28.6,30.19,WNW,298,0.0,0.0,49,0.00,CLR,,0.06,WeatherDisplay:10.37,2013-02-19 16:10:00,
2013-02-19 10:20:00,47.1,28.9,30.19,WNW,302,0.0,0.0,49,0.00,CLR,,0.06,WeatherDisplay:10.37,2013-02-19 16:20:00,
2013-02-19 10:30:00,47.3,28.1,30.19,NW,318,0.0,0.0,47,0.00,CLR,,0.06,WeatherDisplay:10.37,2013-02-19 16:30:00,
2013-02-19 10:40:00,47.1,27.9,30.20,West,264,0.0,0.0,47,0.00,CLR,,0.06,WeatherDisplay:10.37,2013-02-19 16:40:00,
2013-02-19 10:50:00,47.7,27.9,30.19,NW,307,0.0,0.0,46,0.00,CLR,,0.06,WeatherDisplay:10.37,2013-02-19 16:50:00,
2013-02-19 11:00:00,49.6,31.2,30.19,WNW,289,0.0,0.0,49,0.00,CLR,,0.06,WeatherDisplay:10.37,2013-02-19 17:00:00,
2013-02-19 11:10:00,48.9,27.9,30.20,NW,324,0.0,0.0,44,0.00,CLR,,0.06,WeatherDisplay:10.37,2013-02-19 17:10:00,
2013-02-19 11:20:00,48.9,29.5,30.19,WNW,286,0.0,0.0,47,0.00,CLR,,0.06,WeatherDisplay:10.37,2013-02-19 17:20:00,
2013-02-19 11:30:00,49.8,29.8,30.19,West,270,0.0,0.0,46,0.00,CLR,,0.06,WeatherDisplay:10.37,2013-02-19 17:30:00,
2013-02-19 11:40:00,49.6,24.4,30.20,WNW,296,0.0,0.0,37,0.00,CLR,,0.06,WeatherDisplay:10.37,2013-02-19 17:40:00,
2013-02-19 11:50:00,48.4,26.9,30.20,NW,307,0.0,0.0,43,0.00,CLR,,0.06,WeatherDisplay:10.37,2013-02-19 17:50:00,
2013-02-19 12:00:00,51.1,29.3,30.19,WSW,253,0.0,0.0,43,0.00,CLR,,0.06,WeatherDisplay:10.37,2013-02-19 18:00:00,
2013-02-19 12:10:00,52.0,29.0,30.19,West,276,0.0,0.0,41,0.00,CLR,,0.06,WeatherDisplay:10.37,2013-02-19 18:10:00,
2013-02-19 12:20:00,51.8,27.0,30.19,WNW,282,0.0,0.0,38,0.00,CLR,,0.06,WeatherDisplay:10.37,2013-02-19 18:20:00,
2013-02-19 12:30:00,51.1,27.6,30.19,WNW,293,0.0,0.0,40,0.00,CLR,,0.06,WeatherDisplay:10.37,2013-02-19 18:30:00,
2013-02-19 12:40:00,51.4,26.0,30.19,West,263,0.0,0.0,37,0.00,CLR,,0.06,WeatherDisplay:10.37,2013-02-19 18:40:00,
2013-02-19 12:50:00,50.4,25.7,30.18,West,272,0.0,0.0,38,0.00,CLR,,0.06,WeatherDisplay:10.37,2013-02-19 18:50:00,
2013-02-19 13:00:00,50.9,26.1,30.18,West,271,0.0,0.0,38,0.00,CLR,,0.06,WeatherDisplay:10.37,2013-02-19 19:00:00,
2013-02-19 13:10:00,49.6,25.0,30.18,WNW,290,0.0,0.0,38,0.00,CLR,,0.06,WeatherDisplay:10.37,2013-02-19 19:10:00,
2013-02-19 13:20:00,49.1,24.6,30.18,West,278,0.0,0.0,38,0.00,CLR,,0.06,WeatherDisplay:10.37,2013-02-19 19:20:00,
2013-02-19 13:30:00,50.1,24.8,30.18,WNW,284,0.0,0.0,37,0.00,CLR,,0.06,WeatherDisplay:10.37,2013-02-19 19:30:00,
2013-02-19 13:40:00,50.2,26.1,30.18,NNW,338,0.0,0.0,39,0.00,CLR,,0.06,WeatherDisplay:10.37,2013-02-19 19:40:00,
2013-02-19 13:50:00,50.5,23.2,30.18,West,267,0.0,0.0,34,0.00,CLR,,0.06,WeatherDisplay:10.37,2013-02-19 19:50:00,
2013-02-19 14:00:00,49.8,22.5,30.18,NW,314,0.0,0.0,34,0.00,CLR,,0.06,WeatherDisplay:10.37,2013-02-19 20:00:00,
2013-02-19 14:10:00,49.1,22.6,30.18,NW,320,0.0,0.0,35,0.00,CLR,,0.06,WeatherDisplay:10.37,2013-02-19 20:10:00,
2013-02-19 14:20:00,50.2,24.2,30.18,NW,304,0.0,0.0,36,0.00,CLR,,0.06,WeatherDisplay:10.37,2013-02-19 20:20:00,
2013-02-19 14:30:00,49.3,23.4,30.18,WNW,287,0.0,0.0,36,0.00,CLR,,0.06,WeatherDisplay:10.37,2013-02-19 20:30:00,
2013-02-19 14:40:00,50.5,24.5,30.18,WNW,290,0.0,0.0,36,0.00,CLR,,0.06,WeatherDisplay:10.37,2013-02-19 20:40:00,
2013-02-19 14:50:00,50.4,23.7,30.18,WNW,292,0.0,0.0,35,0.00,CLR,,0.06,WeatherDisplay:10.37,2013-02-19 20:50:00,
2013-02-19 15:00:00,49.6,21.7,30.18,NW,305,0.0,0.0,33,0.00,CLR,,0.06,WeatherDisplay:10.37,2013-02-19 21:00:00,
2013-02-19 15:10:00,48.7,21.5,30.18,NW,310,0.0,0.0,34,0.00,CLR,,0.06,WeatherDisplay:10.37,2013-02-19 21:10:00,
2013-02-19 15:20:00,48.4,21.3,30.18,NW,317,0.0,0.0,34,0.00,CLR,,0.06,WeatherDisplay:10.37,2013-02-19 21:20:00,
2013-02-19 15:30:00,48.0,22.3,30.18,WNW,301,0.0,0.0,36,0.00,CLR,,0.06,WeatherDisplay:10.37,2013-02-19 21:30:00,
2013-02-19 15:40:00,48.7,22.9,30.19,NW,305,0.0,0.0,36,0.00,CLR,,0.06,WeatherDisplay:10.37,2013-02-19 21:40:00,
2013-02-19 15:50:00,49.5,24.2,30.19,NW,306,0.0,0.0,37,0.00,CLR,,0.06,WeatherDisplay:10.37,2013-02-19 21:50:00,
2013-02-19 16:00:00,49.3,23.4,30.19,NW,317,0.0,0.0,36,0.00,CLR,,0.06,WeatherDisplay:10.37,2013-02-19 22:00:00,
2013-02-19 16:10:00,48.0,22.3,30.20,WNW,298,0.0,0.0,36,0.00,CLR,,0.06,WeatherDisplay:10.37,2013-02-19 22:10:00,
2013-02-19 16:20:00,47.5,22.5,30.20,NW,316,0.0,0.0,37,0.00,CLR,,0.06,WeatherDisplay:10.37,2013-02-19 22:20:00,
2013-02-19 16:30:00,46.9,23.2,30.20,WNW,286,0.0,0.0,39,0.00,CLR,,0.06,WeatherDisplay:10.37,2013-02-19 22:30:00,
2013-02-19 16:40:00,46.4,22.8,30.21,NW,315,0.0,0.0,39,0.00,CLR,,0.06,WeatherDisplay:10.37,2013-02-19 22:40:00,
2013-02-19 16:50:00,46.4,22.8,30.21,NW,315,0.0,0.0,39,0.00,CLR,,0.06,WeatherDisplay:10.37,2013-02-19 22:50:00,
2013-02-19 17:00:00,46.4,22.8,30.21,NW,315,0.0,0.0,39,0.00,CLR,,0.06,WeatherDisplay:10.37,2013-02-19 23:00:00,
2013-02-19 17:10:00,45.3,21.8,30.21,NW,315,0.0,0.0,39,0.00,CLR,,0.06,WeatherDisplay:10.37,2013-02-19 23:10:00,
2013-02-19 17:20:00,45.3,21.8,30.22,NW,316,0.0,0.0,39,0.00,CLR,,0.06,WeatherDisplay:10.37,2013-02-19 23:20:00,
2013-02-19 17:30:00,45.3,21.8,30.22,NW,316,0.0,0.0,39,0.00,CLR,,0.06,WeatherDisplay:10.37,2013-02-19 23:30:00,
2013-02-19 17:40:00,45.3,21.8,30.22,NW,316,0.0,0.0,39,0.00,CLR,,0.06,WeatherDisplay:10.37,2013-02-19 23:40:00,
2013-02-19 17:50:00,43.2,22.1,30.22,NW,316,0.0,0.0,43,0.00,CLR,,0.06,WeatherDisplay:10.37,2013-02-19 23:50:00,
2013-02-19 18:00:00,42.6,21.7,30.22,NW,321,0.0,0.0,43,0.00,CLR,,0.06,WeatherDisplay:10.37,2013-02-20 00:00:00,
2013-02-19 18:10:00,42.4,22.0,30.21,NNW,332,0.0,0.0,44,0.00,CLR,,0.06,WeatherDisplay:10.37,2013-02-20 00:10:00,
2013-02-19 18:20:00,41.9,21.5,30.22,NW,317,0.0,0.0,44,0.00,CLR,,0.06,WeatherDisplay:10.37,2013-02-20 00:20:00,
2013-02-19 18:30:00,41.4,21.6,30.22,NW,315,0.0,0.0,45,0.00,CLR,,0.06,WeatherDisplay:10.37,2013-02-20 00:30:00,
2013-02-19 18:40:00,40.8,21.6,30.22,NW,309,0.0,0.0,46,0.00,CLR,,0.06,WeatherDisplay:10.37,2013-02-20 00:40:00,
2013-02-19 18:50:00,40.8,22.1,30.23,NW,315,0.0,0.0,47,0.00,CLR,,0.06,WeatherDisplay:10.37,2013-02-20 00:50:00,
2013-02-19 19:00:00,40.2,22.1,30.23,WNW,301,0.0,0.0,48,0.00,CLR,,0.06,WeatherDisplay:10.37,2013-02-20 01:00:00,
2013-02-19 19:10:00,40.1,22.0,30.23,NW,309,0.0,0.0,48,0.00,CLR,,0.06,WeatherDisplay:10.37,2013-02-20 01:10:00,
2013-02-19 19:20:00,39.7,21.6,30.23,NW,315,0.0,0.0,48,0.00,CLR,,0.06,WeatherDisplay:10.37,2013-02-20 01:20:00,
2013-02-19 19:30:00,38.6,21.0,30.23,NW,315,0.0,0.0,49,0.00,CLR,,0.06,WeatherDisplay:10.37,2013-02-20 01:30:00,
2013-02-19 19:40:00,38.1,21.1,30.23,NW,315,0.0,0.0,50,0.00,CLR,,0.06,WeatherDisplay:10.37,2013-02-20 01:40:00,
2013-02-19 19:50:00,37.0,21.5,30.23,NW,315,0.0,0.0,53,0.00,CLR,,0.06,WeatherDisplay:10.37,2013-02-20 01:50:00,
2013-02-19 20:00:00,36.2,21.2,30.23,NW,315,0.0,0.0,54,0.00,CLR,,0.06,WeatherDisplay:10.37,2013-02-20 02:00:00,
2013-02-19 20:10:00,35.8,21.2,30.25,NW,315,0.0,0.0,55,0.00,CLR,,0.06,WeatherDisplay:10.37,2013-02-20 02:10:00,
2013-02-19 20:20:00,35.4,21.7,30.25,NW,315,0.0,0.0,57,0.00,CLR,,0.06,WeatherDisplay:10.37,2013-02-20 02:20:00,
2013-02-19 20:30:00,34.9,22.4,30.26,NW,315,0.0,0.0,60,0.00,CLR,,0.06,WeatherDisplay:10.37,2013-02-20 02:30:00,
2013-02-19 20:40:00,34.6,22.1,30.26,NW,315,0.0,0.0,60,0.00,CLR,,0.06,WeatherDisplay:10.37,2013-02-20 02:40:00,
2013-02-19 20:50:00,34.2,21.7,30.26,NW,315,0.0,0.0,60,0.00,CLR,,0.06,WeatherDisplay:10.37,2013-02-20 02:50:00,
2013-02-19 21:00:00,34.0,21.9,30.25,NW,315,0.0,0.0,61,0.00,CLR,,0.06,WeatherDisplay:10.37,2013-02-20 03:00:00,
2013-02-19 21:10:00,33.4,22.2,30.26,NW,315,0.0,0.0,63,0.00,CLR,,0.06,WeatherDisplay:10.37,2013-02-20 03:10:00,
2013-02-19 21:20:00,33.4,22.2,30.26,NW,315,0.0,0.0,63,0.00,CLR,,0.06,WeatherDisplay:10.37,2013-02-20 03:20:00,
2013-02-19 21:30:00,32.7,22.6,30.25,NW,315,0.0,0.0,66,0.00,CLR,,0.06,WeatherDisplay:10.37,2013-02-20 03:30:00,
2013-02-19 21:40:00,32.2,22.8,30.25,NW,315,0.0,0.0,68,0.00,CLR,,0.06,WeatherDisplay:10.37,2013-02-20 03:40:00,
2013-02-19 21:50:00,31.8,22.5,30.26,NW,315,0.0,0.0,68,0.00,CLR,,0.06,WeatherDisplay:10.37,2013-02-20 03:50:00,
2013-02-19 22:00:00,31.3,22.3,30.26,NW,315,0.0,0.0,69,0.00,CLR,,0.06,WeatherDisplay:10.37,2013-02-20 04:00:00,
2013-02-19 22:10:00,31.1,22.5,30.26,NW,315,0.0,0.0,70,0.00,CLR,,0.06,WeatherDisplay:10.37,2013-02-20 04:10:00,
2013-02-19 22:20:00,30.9,23.0,30.25,NW,315,0.0,0.0,72,0.00,CLR,,0.06,WeatherDisplay:10.37,2013-02-20 04:20:00,
2013-02-19 22:30:00,30.7,22.8,30.26,NW,315,0.0,0.0,72,0.00,CLR,,0.06,WeatherDisplay:10.37,2013-02-20 04:30:00,
2013-02-19 22:40:00,30.4,22.8,30.26,NW,315,0.0,0.0,73,0.00,CLR,,0.06,WeatherDisplay:10.37,2013-02-20 04:40:00,
2013-02-19 22:50:00,30.0,22.4,30.26,NW,315,0.0,0.0,73,0.00,CLR,,0.06,WeatherDisplay:10.37,2013-02-20 04:50:00,
2013-02-19 23:00:00,30.0,23.4,30.26,NW,315,0.0,0.0,76,0.00,CLR,,0.06,WeatherDisplay:10.37,2013-02-20 05:00:00,
2013-02-19 23:10:00,29.7,23.0,30.25,NW,315,0.0,0.0,76,0.00,CLR,,0.06,WeatherDisplay:10.37,2013-02-20 05:10:00,
2013-02-19 23:20:00,29.3,23.0,30.25,NW,315,0.0,0.0,77,0.00,CLR,,0.06,WeatherDisplay:10.37,2013-02-20 05:20:00,
2013-02-19 23:30:00,28.9,22.6,30.24,NW,315,0.0,0.0,77,0.00,CLR,,0.06,WeatherDisplay:10.37,2013-02-20 05:30:00,
2013-02-19 23:40:00,28.8,22.5,30.25,NW,315,0.0,0.0,77,0.00,CLR,,0.06,WeatherDisplay:10.37,2013-02-20 05:40:00,
2013-02-19 23:50:00,28.4,22.4,30.25,NW,315,0.0,0.0,78,0.00,CLR,,0.06,WeatherDisplay:10.37,2013-02-20 05:50:00,